Time;durP1;ratioP1;P1;durP2;ratioP2;P2;SDS_P1;SDS_P2;PMS_P1;PMS_P2;Temp;Humidity;BMP_temperature;BMP_pressure;BME280_temperature;BME280_humidity;BME280_pressure;Samples;Min_cycle;Max_cycle;Signal;HPM_P1;HPM_P2
2022/12/11 00:01:10;;;;;;;29.73;17.52;;;22.20;99.90;;;;;;5052264;28;20052;-49
2022/12/11 00:03:37;;;;;;;29.45;18.02;;;22.20;99.90;;;;;;5053030;28;20432;-47
2022/12/11 00:06:11;;;;;;;27.20;17.65;;;22.20;99.90;;;;;;5053129;28;20022;-49
2022/12/11 00:08:37;;;;;;;27.80;16.55;;;22.20;99.90;;;;;;5052811;28;20044;-48
2022/12/11 00:11:03;;;;;;;33.22;18.27;;;22.20;99.90;;;;;;5052803;28;20025;-48
2022/12/11 00:13:29;;;;;;;33.13;17.98;;;22.20;99.90;;;;;;5052819;28;20103;-48
2022/12/11 00:15:57;;;;;;;25.77;16.38;;;22.20;99.90;;;;;;5052779;28;20040;-47
2022/12/11 00:18:23;;;;;;;25.00;16.35;;;22.20;99.90;;;;;;5052857;28;20432;-49
2022/12/11 00:20:49;;;;;;;27.15;16.83;;;22.20;99.90;;;;;;5052933;28;20108;-48
2022/12/11 00:23:14;;;;;;;26.55;15.55;;;22.20;99.90;;;;;;5052551;28;20100;-48
2022/12/11 00:25:45;;;;;;;27.50;16.83;;;22.20;99.90;;;;;;5052824;28;20029;-48
2022/12/11 00:28:13;;;;;;;31.33;17.27;;;22.10;99.90;;;;;;5052613;28;20029;-47
2022/12/11 00:30:41;;;;;;;29.15;16.60;;;22.10;99.90;;;;;;5034726;28;20040;-47
2022/12/11 00:33:07;;;;;;;25.45;15.73;;;22.10;99.90;;;;;;5052499;28;20052;-48
2022/12/11 00:35:36;;;;;;;27.40;15.52;;;22.10;99.90;;;;;;5052471;28;20104;-48
2022/12/11 00:38:02;;;;;;;24.65;15.18;;;22.10;99.90;;;;;;5052523;28;20021;-48
2022/12/11 00:40:28;;;;;;;24.55;15.55;;;22.00;99.90;;;;;;5052548;28;20074;-47
2022/12/11 00:42:53;;;;;;;22.75;16.05;;;22.10;99.90;;;;;;5052437;28;20032;-48
2022/12/11 00:45:19;;;;;;;27.27;15.95;;;22.10;99.90;;;;;;5052623;28;20029;-47
2022/12/11 00:47:45;;;;;;;22.15;14.77;;;22.10;99.90;;;;;;5052357;28;20430;-47
2022/12/11 00:50:11;;;;;;;23.60;16.33;;;22.10;99.90;;;;;;5052329;28;20163;-48
2022/12/11 00:52:39;;;;;;;24.38;14.40;;;22.10;99.90;;;;;;5052220;28;20029;-47
2022/12/11 00:55:05;;;;;;;21.92;13.43;;;22.10;99.90;;;;;;5052436;28;20452;-48
2022/12/11 00:57:31;;;;;;;25.42;14.55;;;22.00;99.90;;;;;;5052162;28;20029;-47
2022/12/11 00:59:57;;;;;;;21.63;14.15;;;22.00;99.90;;;;;;5052568;28;20178;-48
2022/12/11 01:02:22;;;;;;;20.48;13.82;;;22.00;99.90;;;;;;5052318;28;20029;-48
2022/12/11 01:04:48;;;;;;;21.10;14.63;;;22.00;99.90;;;;;;5052141;28;20025;-48
2022/12/11 01:07:14;;;;;;;20.90;14.27;;;22.00;99.90;;;;;;5051924;28;20048;-47
2022/12/11 01:12:25;;;;;;;21.45;13.45;;;22.00;99.90;;;;;;5052559;28;20081;-47
2022/12/11 01:14:51;;;;;;;21.13;12.63;;;22.00;99.90;;;;;;5052308;28;20096;-47
2022/12/11 01:17:17;;;;;;;20.25;13.50;;;22.00;99.90;;;;;;5034126;28;20426;-48
2022/12/11 01:19:42;;;;;;;21.95;13.93;;;22.00;99.90;;;;;;5051859;28;20387;-48
2022/12/11 01:22:08;;;;;;;22.10;13.40;;;22.00;99.90;;;;;;5052052;28;20010;-48
2022/12/11 01:24:34;;;;;;;19.80;14.05;;;22.00;99.90;;;;;;5051939;28;20475;-48
2022/12/11 01:26:59;;;;;;;21.08;13.10;;;21.90;99.90;;;;;;5051950;28;20041;-47
2022/12/11 01:29:25;;;;;;;19.00;11.80;;;21.90;99.90;;;;;;5034527;28;20021;-47
2022/12/11 01:31:51;;;;;;;17.85;11.55;;;21.90;99.90;;;;;;5052054;28;20029;-47
2022/12/11 01:34:17;;;;;;;18.00;11.68;;;21.90;99.90;;;;;;5051882;28;20017;-47
2022/12/11 01:36:42;;;;;;;18.25;12.43;;;21.90;99.90;;;;;;5052056;28;20029;-48
2022/12/11 01:39:08;;;;;;;21.23;11.93;;;21.90;99.90;;;;;;5051780;28;20025;-49
2022/12/11 01:41:34;;;;;;;17.20;12.00;;;21.90;99.90;;;;;;5051868;28;20096;-47
2022/12/11 01:44:05;;;;;;;20.40;13.02;;;21.90;99.90;;;;;;5051856;28;20075;-47
2022/12/11 01:46:33;;;;;;;21.10;12.85;;;21.90;99.90;;;;;;5051833;28;20471;-48
2022/12/11 01:49:02;;;;;;;19.52;13.30;;;21.80;99.90;;;;;;5051718;28;20131;-47
2022/12/11 01:51:31;;;;;;;23.83;14.65;;;21.90;99.90;;;;;;5052385;28;20021;-47
2022/12/11 01:54:06;;;;;;;20.63;12.50;;;21.90;99.90;;;;;;5051953;28;20431;-47
2022/12/11 01:56:34;;;;;;;18.38;12.73;;;21.90;99.90;;;;;;5051707;28;20070;-47
2022/12/11 01:59:06;;;;;;;18.42;11.63;;;21.80;99.90;;;;;;5051659;28;20048;-46
2022/12/11 02:01:41;;;;;;;18.48;11.98;;;21.80;99.90;;;;;;5052043;28;20044;-47
2022/12/11 02:04:08;;;;;;;18.52;11.55;;;21.80;99.90;;;;;;5051600;28;20390;-47
2022/12/11 02:06:40;;;;;;;16.88;11.70;;;21.80;99.90;;;;;;5051608;28;20032;-47
2022/12/11 02:09:13;;;;;;;18.02;10.18;;;21.80;99.90;;;;;;5051595;28;20120;-47
2022/12/11 02:11:44;;;;;;;16.30;10.82;;;21.80;99.90;;;;;;5051531;28;20031;-48
2022/12/11 02:14:23;;;;;;;15.57;10.65;;;21.80;99.90;;;;;;5051440;28;20029;-47
2022/12/11 02:17:09;;;;;;;16.05;10.85;;;21.80;99.90;;;;;;5051545;28;20852;-47
2022/12/11 02:20:05;;;;;;;20.13;10.50;;;21.70;99.90;;;;;;5051409;28;20029;-47
2022/12/11 02:22:43;;;;;;;14.65;10.32;;;21.80;99.90;;;;;;5051366;28;20083;-47
2022/12/11 02:25:16;;;;;;;16.85;10.55;;;21.70;99.90;;;;;;5053114;28;20371;-47
2022/12/11 02:27:47;;;;;;;14.55;8.93;;;21.70;99.90;;;;;;5054963;28;20043;-47
2022/12/11 02:30:15;;;;;;;13.82;9.32;;;21.70;99.90;;;;;;5054949;28;20051;-47
2022/12/11 02:32:50;;;;;;;15.40;9.93;;;21.70;99.90;;;;;;5054794;28;20025;-47
2022/12/11 02:35:38;;;;;;;15.45;9.07;;;21.70;99.90;;;;;;5054813;28;20021;-48
2022/12/11 02:38:18;;;;;;;15.73;9.73;;;21.60;99.90;;;;;;5054674;28;20483;-47
2022/12/11 02:40:48;;;;;;;16.60;10.23;;;21.60;99.90;;;;;;5054709;28;20056;-47
2022/12/11 02:43:16;;;;;;;14.25;9.93;;;21.60;99.90;;;;;;5054825;28;20095;-47
2022/12/11 02:45:44;;;;;;;12.48;8.48;;;21.60;99.90;;;;;;5036900;28;20104;-47
2022/12/11 02:48:11;;;;;;;14.85;9.18;;;21.60;99.90;;;;;;5054647;28;20033;-47
2022/12/11 02:50:48;;;;;;;17.05;9.38;;;21.60;99.90;;;;;;5054676;28;20094;-47
2022/12/11 02:53:19;;;;;;;14.85;9.32;;;21.60;99.90;;;;;;5054449;28;20029;-47
2022/12/11 02:55:46;;;;;;;18.27;8.95;;;21.50;99.90;;;;;;5054425;28;20009;-47
2022/12/11 02:58:17;;;;;;;14.77;9.35;;;21.50;99.90;;;;;;5054464;28;20025;-48
2022/12/11 03:00:46;;;;;;;13.80;9.40;;;21.50;99.90;;;;;;5038030;22;20054;-53
2022/12/11 03:03:12;;;;;;;13.65;8.88;;;21.50;99.90;;;;;;4993882;28;20026;-52
2022/12/11 03:05:39;;;;;;;13.60;7.55;;;21.50;99.90;;;;;;4995017;28;20022;-52
2022/12/11 03:08:05;;;;;;;13.02;7.70;;;21.50;99.90;;;;;;4994916;28;20518;-52
2022/12/11 03:10:31;;;;;;;13.13;7.00;;;21.50;99.90;;;;;;4993905;28;20034;-52
2022/12/11 03:12:59;;;;;;;10.77;7.32;;;21.40;99.90;;;;;;4977620;28;20034;-53
2022/12/11 03:15:39;;;;;;;14.00;6.95;;;21.40;99.90;;;;;;4994952;28;20412;-52
2022/12/11 03:18:22;;;;;;;10.13;7.30;;;21.40;99.90;;;;;;4994900;28;20026;-52
2022/12/11 03:21:06;;;;;;;12.38;7.40;;;21.40;99.90;;;;;;4977390;28;20436;-52
2022/12/11 03:23:47;;;;;;;9.88;7.43;;;21.40;99.90;;;;;;4994998;28;20038;-52
2022/12/11 03:26:16;;;;;;;12.65;7.88;;;21.30;99.90;;;;;;4994655;28;20037;-53
2022/12/11 03:28:57;;;;;;;10.93;6.85;;;21.40;99.90;;;;;;4994504;28;20030;-52
2022/12/11 03:31:34;;;;;;;12.70;7.88;;;21.40;99.90;;;;;;4994592;28;20029;-52
2022/12/11 03:34:05;;;;;;;14.25;7.85;;;21.30;99.90;;;;;;4994740;28;20105;-52
2022/12/11 03:36:35;;;;;;;13.27;7.35;;;21.30;99.90;;;;;;4976285;28;20029;-52
2022/12/11 03:39:08;;;;;;;9.60;5.93;;;21.30;99.90;;;;;;4994725;28;20027;-52
2022/12/11 03:41:36;;;;;;;8.55;6.10;;;21.30;99.90;;;;;;4994705;28;20018;-52
2022/12/11 03:44:02;;;;;;;10.27;6.30;;;21.30;99.90;;;;;;4994605;28;20030;-53
2022/12/11 03:46:35;;;;;;;10.65;6.97;;;21.30;99.90;;;;;;4994222;28;20045;-52
2022/12/11 03:49:06;;;;;;;9.00;5.97;;;21.20;99.90;;;;;;4994450;28;20022;-52
2022/12/11 03:51:34;;;;;;;11.68;8.15;;;21.20;99.90;;;;;;4994409;28;20029;-52
2022/12/11 03:54:01;;;;;;;8.90;6.45;;;21.20;99.90;;;;;;4994434;28;20026;-52
2022/12/11 03:56:29;;;;;;;10.30;6.43;;;21.20;99.90;;;;;;4994107;28;20080;-52
2022/12/11 03:58:54;;;;;;;9.60;6.70;;;21.20;99.90;;;;;;4994050;28;20057;-52
2022/12/11 04:01:20;;;;;;;9.02;6.57;;;21.20;99.90;;;;;;5056696;22;20048;-49
2022/12/11 04:03:46;;;;;;;10.25;5.90;;;21.20;99.90;;;;;;5053188;28;20033;-49
2022/12/11 04:06:12;;;;;;;8.55;5.72;;;21.10;99.90;;;;;;5053182;28;20017;-49
2022/12/11 04:08:37;;;;;;;7.75;5.07;;;21.10;99.90;;;;;;5053039;28;20433;-48
2022/12/11 04:15:00;;;;;;;6.90;4.95;;;21.10;99.90;;;;;;5053144;28;20079;-49
2022/12/11 04:16:34;;;;;;;8.38;5.65;;;21.10;99.90;;;;;;5052872;28;20101;-49
2022/12/11 04:24:28;;;;;;;6.57;4.40;;;21.00;99.90;;;;;;5052904;28;20039;-49
2022/12/11 04:26:53;;;;;;;7.35;3.90;;;21.00;99.90;;;;;;5034849;28;20033;-48
2022/12/11 04:29:19;;;;;;;6.03;4.07;;;21.00;99.90;;;;;;5052820;28;20024;-48
2022/12/11 04:31:46;;;;;;;6.95;4.25;;;21.00;99.90;;;;;;5052748;28;20076;-49
2022/12/11 04:34:11;;;;;;;5.40;3.92;;;21.00;99.90;;;;;;5035012;28;20030;-48
2022/12/11 04:36:37;;;;;;;6.72;4.18;;;21.00;99.90;;;;;;5034974;28;20121;-47
2022/12/11 04:39:04;;;;;;;5.30;3.70;;;21.00;99.90;;;;;;5052819;28;20036;-49
2022/12/11 04:41:30;;;;;;;5.05;3.47;;;21.00;99.90;;;;;;5052521;28;20048;-49
2022/12/11 04:43:56;;;;;;;5.50;3.38;;;20.90;99.90;;;;;;5034682;28;20040;-49
2022/12/11 04:46:23;;;;;;;6.72;3.15;;;20.90;99.90;;;;;;5052239;28;20474;-49
2022/12/11 04:48:50;;;;;;;6.33;3.20;;;20.90;99.90;;;;;;5052213;28;20071;-47
2022/12/11 04:51:17;;;;;;;4.53;2.97;;;21.00;99.90;;;;;;5034435;28;20300;-46
2022/12/11 04:53:43;;;;;;;4.40;3.00;;;20.90;99.90;;;;;;5052148;28;20278;-47
2022/12/11 04:56:11;;;;;;;6.55;2.83;;;20.90;99.90;;;;;;5052204;28;20028;-47
2022/12/11 04:58:40;;;;;;;4.70;3.20;;;20.90;99.90;;;;;;5052445;28;20478;-46
2022/12/11 05:01:18;;;;;;;4.10;2.90;;;20.90;99.90;;;;;;5053284;28;20053;-47
2022/12/11 05:03:44;;;;;;;4.70;2.90;;;20.90;99.90;;;;;;5052254;28;20060;-48
2022/12/11 05:06:10;;;;;;;4.50;3.00;;;20.90;99.90;;;;;;5052408;28;20107;-47
2022/12/11 05:08:39;;;;;;;5.13;2.97;;;20.90;99.90;;;;;;5052205;28;20048;-47
2022/12/11 05:11:06;;;;;;;3.63;2.80;;;20.90;99.90;;;;;;5052248;28;20024;-46
2022/12/11 05:13:33;;;;;;;5.43;2.72;;;20.90;99.90;;;;;;5050944;28;20103;-46
2022/12/11 05:15:59;;;;;;;4.90;2.40;;;20.80;99.90;;;;;;5052192;28;20102;-46
2022/12/11 05:18:25;;;;;;;3.80;2.47;;;20.90;99.90;;;;;;5052194;28;20617;-47
2022/12/11 05:21:01;;;;;;;4.55;2.80;;;20.80;99.90;;;;;;5051972;28;20027;-47
2022/12/11 05:23:28;;;;;;;3.30;2.28;;;20.90;99.90;;;;;;5052004;28;20021;-47
2022/12/11 05:25:55;;;;;;;4.35;2.35;;;20.80;99.90;;;;;;5052125;28;20063;-47
2022/12/11 05:28:22;;;;;;;;;;;20.80;99.90;;;;;;5052330;28;20040;-46
2022/12/11 05:30:47;;;;;;;3.00;2.17;;;20.80;99.90;;;;;;5051966;28;20432;-47
2022/12/11 05:33:13;;;;;;;2.78;2.00;;;20.80;99.90;;;;;;5051985;28;20025;-47
2022/12/11 05:35:46;;;;;;;3.30;2.00;;;20.80;99.90;;;;;;5052120;28;20025;-47
2022/12/11 05:38:12;;;;;;;4.20;2.30;;;20.80;99.90;;;;;;5052036;28;20423;-47
2022/12/11 05:40:38;;;;;;;4.20;2.55;;;20.80;99.90;;;;;;5052076;28;20100;-47
2022/12/11 05:43:03;;;;;;;2.70;2.17;;;20.70;99.90;;;;;;5051857;28;20029;-47
2022/12/11 05:45:29;;;;;;;3.15;1.90;;;20.80;99.90;;;;;;5051841;28;20037;-47
2022/12/11 05:47:55;;;;;;;3.47;2.45;;;20.70;99.90;;;;;;5051729;28;20036;-47
2022/12/11 05:50:20;;;;;;;3.03;2.30;;;20.70;99.90;;;;;;5033694;28;20024;-47
2022/12/11 05:52:47;;;;;;;3.70;1.90;;;20.70;99.90;;;;;;5051743;28;20112;-48
2022/12/11 05:55:12;;;;;;;3.08;1.90;;;20.70;99.90;;;;;;5051991;28;20021;-49
2022/12/11 05:57:38;;;;;;;3.92;2.05;;;20.70;99.90;;;;;;5051887;28;20360;-48
2022/12/11 06:00:05;;;;;;;3.70;2.33;;;20.70;99.90;;;;;;5053201;28;20549;-48
2022/12/11 06:02:34;;;;;;;4.82;1.90;;;20.70;99.90;;;;;;5055688;28;20024;-48
2022/12/11 06:05:00;;;;;;;4.00;2.47;;;20.70;99.90;;;;;;5054290;28;20113;-47
2022/12/11 06:07:25;;;;;;;4.50;2.58;;;20.70;99.90;;;;;;5055302;28;20040;-47
2022/12/11 06:09:51;;;;;;;3.10;2.20;;;20.70;99.90;;;;;;5055455;28;20021;-47
2022/12/11 06:12:17;;;;;;;4.13;2.03;;;20.70;99.90;;;;;;5055337;28;20021;-47
2022/12/11 06:14:43;;;;;;;7.47;2.80;;;20.70;99.90;;;;;;5055475;28;20024;-48
2022/12/11 06:17:09;;;;;;;6.68;2.60;;;20.70;99.90;;;;;;5054897;28;20056;-49
2022/12/11 06:19:34;;;;;;;5.38;2.58;;;20.70;99.90;;;;;;5054899;28;20108;-50
2022/12/11 06:22:00;;;;;;;8.43;3.20;;;20.70;99.90;;;;;;5055206;28;20025;-49
2022/12/11 06:24:26;;;;;;;9.07;2.67;;;20.70;99.90;;;;;;5055251;28;20037;-49
2022/12/11 06:26:52;;;;;;;5.18;2.30;;;20.70;99.90;;;;;;5055083;28;20074;-49
2022/12/11 06:29:17;;;;;;;5.00;2.75;;;20.70;99.90;;;;;;5055143;28;20033;-50
2022/12/11 06:31:43;;;;;;;4.45;2.38;;;20.70;99.90;;;;;;5037436;28;20025;-50
2022/12/11 06:34:12;;;;;;;5.30;2.70;;;20.70;99.90;;;;;;5054435;28;20108;-50
2022/12/11 06:36:38;;;;;;;5.13;3.05;;;20.70;99.90;;;;;;5035603;28;20032;-49
2022/12/11 06:39:04;;;;;;;2.67;1.95;;;20.70;99.90;;;;;;5054217;28;20029;-51
2022/12/11 06:41:30;;;;;;;6.00;2.80;;;20.70;99.90;;;;;;5054113;28;20036;-50
2022/12/11 06:43:56;;;;;;;6.45;3.22;;;20.70;99.90;;;;;;5054121;28;20037;-49
2022/12/11 06:46:22;;;;;;;6.00;2.92;;;20.70;99.90;;;;;;5053709;28;20048;-49
2022/12/11 06:48:48;;;;;;;4.40;2.42;;;20.70;99.90;;;;;;5052862;28;20047;-50
2022/12/11 06:51:17;;;;;;;4.57;2.38;;;20.70;99.90;;;;;;5052624;28;20036;-49
2022/12/11 06:53:43;;;;;;;5.20;2.35;;;20.60;99.90;;;;;;5052613;28;20024;-50
2022/12/11 06:56:12;;;;;;;4.95;1.95;;;20.60;99.90;;;;;;5052249;28;20028;-50
2022/12/11 06:58:38;;;;;;;6.10;2.60;;;20.60;99.90;;;;;;5052904;28;20028;-50
2022/12/11 07:01:14;;;;;;;3.90;2.15;;;20.60;99.90;;;;;;5052387;28;20053;-50
2022/12/11 07:03:40;;;;;;;6.63;2.70;;;20.60;99.90;;;;;;5052515;28;20025;-50
2022/12/11 07:06:06;;;;;;;5.15;2.72;;;20.60;99.90;;;;;;5052196;28;20304;-49
2022/12/11 07:08:32;;;;;;;13.20;3.25;;;20.60;99.90;;;;;;5052341;28;20416;-50
2022/12/11 07:11:11;;;;;;;7.28;2.60;;;20.60;99.90;;;;;;5052111;28;20498;-50
2022/12/11 07:13:37;;;;;;;6.10;2.47;;;20.60;99.90;;;;;;5035057;28;20052;-50
2022/12/11 07:16:09;;;;;;;7.07;2.30;;;20.60;99.90;;;;;;5054104;28;20025;-50
2022/12/11 07:18:39;;;;;;;5.38;2.35;;;20.60;99.90;;;;;;5054147;28;20032;-49
2022/12/11 07:21:06;;;;;;;4.85;2.10;;;20.60;99.90;;;;;;5054048;28;20052;-50
2022/12/11 07:23:34;;;;;;;4.78;2.30;;;20.50;99.90;;;;;;5054124;28;20037;-50
2022/12/11 07:26:07;;;;;;;3.92;1.98;;;20.60;99.90;;;;;;5054016;28;20052;-49
2022/12/11 07:28:33;;;;;;;8.10;2.85;;;20.50;99.90;;;;;;5036782;28;20441;-49
2022/12/11 07:31:03;;;;;;;6.60;3.20;;;20.50;99.90;;;;;;5053901;28;20120;-50
2022/12/11 07:33:28;;;;;;;10.18;2.50;;;20.50;99.90;;;;;;5053857;28;20021;-49
2022/12/11 07:35:54;;;;;;;6.68;2.20;;;20.50;99.90;;;;;;5053822;28;20044;-50
2022/12/11 07:38:20;;;;;;;6.90;2.10;;;20.50;99.90;;;;;;5053683;28;20433;-49
2022/12/11 07:40:46;;;;;;;7.82;3.00;;;20.50;99.90;;;;;;5053654;28;20049;-49
2022/12/11 07:43:11;;;;;;;3.88;1.85;;;20.50;99.90;;;;;;5036017;28;20025;-50
2022/12/11 07:45:38;;;;;;;6.68;2.47;;;20.50;99.90;;;;;;5035945;28;20025;-50
2022/12/11 07:48:04;;;;;;;7.43;2.17;;;20.50;99.90;;;;;;5053505;28;20029;-50
2022/12/11 07:50:29;;;;;;;5.85;2.30;;;20.50;99.90;;;;;;5035760;28;20425;-50
2022/12/11 07:52:55;;;;;;;6.63;2.22;;;20.50;99.90;;;;;;5053479;28;20029;-50
2022/12/11 07:55:21;;;;;;;6.28;2.13;;;20.50;99.90;;;;;;5018983;28;20388;-50
2022/12/11 07:57:47;;;;;;;4.18;2.40;;;20.50;99.90;;;;;;5053513;28;20379;-50
2022/12/11 08:00:13;;;;;;;5.57;2.15;;;20.50;99.90;;;;;;5053204;28;20410;-50
2022/12/11 08:02:39;;;;;;;5.65;2.55;;;20.40;99.90;;;;;;5053195;28;20033;-51
2022/12/11 08:05:05;;;;;;;3.78;1.75;;;20.40;99.90;;;;;;5053154;28;20021;-50
2022/12/11 08:07:34;;;;;;;6.32;2.70;;;20.50;99.90;;;;;;5053131;28;20025;-50
2022/12/11 08:10:00;;;;;;;5.25;2.13;;;20.50;99.90;;;;;;5053061;28;20056;-50
2022/12/11 08:12:26;;;;;;;6.93;1.92;;;20.50;99.90;;;;;;5053067;28;20029;-50
2022/12/11 08:14:51;;;;;;;3.30;2.13;;;20.40;99.90;;;;;;5053257;28;20024;-50
2022/12/11 08:17:17;;;;;;;4.05;1.50;;;20.40;99.90;;;;;;5053201;28;20172;-50
2022/12/11 08:19:43;;;;;;;5.38;1.98;;;20.40;99.90;;;;;;5052857;28;20029;-50
2022/12/11 08:22:09;;;;;;;4.72;2.03;;;20.40;99.90;;;;;;5034661;28;20025;-50
2022/12/11 08:24:35;;;;;;;4.43;1.60;;;20.40;99.90;;;;;;5052876;28;20025;-50
2022/12/11 08:27:00;;;;;;;4.35;1.75;;;20.40;99.90;;;;;;5052661;28;20101;-49
2022/12/11 08:29:26;;;;;;;4.90;1.70;;;20.40;99.90;;;;;;5052734;28;20444;-48
2022/12/11 08:31:52;;;;;;;5.35;1.88;;;20.40;99.90;;;;;;5052800;28;20426;-49
2022/12/11 08:34:18;;;;;;;4.13;1.95;;;20.40;99.90;;;;;;5052855;28;20049;-50
2022/12/11 08:36:44;;;;;;;3.63;1.83;;;20.40;99.90;;;;;;5052756;28;20021;-49
2022/12/11 08:39:09;;;;;;;3.28;1.65;;;20.40;99.90;;;;;;5052505;28;20374;-49
2022/12/11 08:41:35;;;;;;;5.45;1.80;;;20.40;99.90;;;;;;5034559;28;20123;-49
2022/12/11 08:44:01;;;;;;;4.40;1.27;;;20.40;99.90;;;;;;5052639;28;20025;-50
2022/12/11 08:46:29;;;;;;;4.50;1.70;;;20.40;99.90;;;;;;5052497;28;20100;-50
2022/12/11 08:48:55;;;;;;;3.22;1.38;;;20.40;99.90;;;;;;5052504;28;20048;-49
2022/12/11 08:51:24;;;;;;;2.47;1.27;;;20.40;99.90;;;;;;5052553;28;20021;-49
2022/12/11 08:53:53;;;;;;;4.32;1.50;;;20.40;99.90;;;;;;5052556;28;20024;-50
2022/12/11 08:56:20;;;;;;;3.25;1.60;;;20.40;99.90;;;;;;5052268;28;20497;-50
2022/12/11 08:58:46;;;;;;;3.28;1.85;;;20.40;99.90;;;;;;5052282;28;20115;-50
2022/12/11 09:01:20;;;;;;;3.10;1.60;;;20.40;99.90;;;;;;5052093;28;20533;-51
2022/12/11 09:03:46;;;;;;;3.65;1.50;;;20.40;99.90;;;;;;5052224;28;20036;-51
2022/12/11 09:06:14;;;;;;;3.70;1.60;;;20.40;99.90;;;;;;5052177;28;20017;-50
2022/12/11 09:08:41;;;;;;;3.58;1.77;;;20.40;99.90;;;;;;5052077;28;20474;-50
2022/12/11 09:11:20;;;;;;;5.22;2.10;;;20.40;99.90;;;;;;5034248;28;20021;-48
2022/12/11 09:13:46;;;;;;;3.58;1.30;;;20.40;99.90;;;;;;5052096;28;20585;-49
2022/12/11 09:16:15;;;;;;;2.08;1.20;;;20.40;99.90;;;;;;5052052;28;20456;-49
2022/12/11 09:18:41;;;;;;;3.58;1.88;;;20.40;99.90;;;;;;5051954;28;20071;-49
2022/12/11 09:21:12;;;;;;;2.38;1.27;;;20.40;99.90;;;;;;5051813;28;20021;-50
2022/12/11 09:23:38;;;;;;;2.90;1.77;;;20.40;99.90;;;;;;5052137;28;20100;-48
2022/12/11 09:26:10;;;;;;;2.22;1.50;;;20.40;99.90;;;;;;5052273;28;20025;-49
2022/12/11 09:28:36;;;;;;;3.42;1.45;;;20.40;99.90;;;;;;5052265;28;20044;-49
2022/12/11 09:31:11;;;;;;;3.22;1.70;;;20.40;99.90;;;;;;5051879;28;20526;-49
2022/12/11 09:33:37;;;;;;;5.38;1.52;;;20.40;99.90;;;;;;5051877;28;20025;-49
2022/12/11 09:36:04;;;;;;;3.20;2.00;;;20.40;99.90;;;;;;5055220;28;20031;-49
2022/12/11 09:38:31;;;;;;;2.43;1.77;;;20.40;99.90;;;;;;5055867;28;20036;-49
2022/12/11 09:40:57;;;;;;;3.53;1.70;;;20.40;99.90;;;;;;5056175;28;20032;-49
2022/12/11 09:43:38;;;;;;;3.00;1.65;;;20.40;99.90;;;;;;5056043;28;20498;-49
2022/12/11 09:46:10;;;;;;;2.65;1.45;;;20.40;99.90;;;;;;5038006;28;20025;-49
2022/12/11 09:48:38;;;;;;;4.15;1.95;;;20.40;99.90;;;;;;5055637;28;20494;-49
2022/12/11 09:51:09;;;;;;;;;;;20.40;99.90;;;;;;5038164;28;20454;-48
2022/12/11 09:53:36;;;;;;;3.00;1.80;;;20.40;99.90;;;;;;5055627;28;20378;-48
2022/12/11 09:56:20;;;;;;;4.10;2.20;;;20.50;99.90;;;;;;5055691;28;20025;-48
2022/12/11 09:59:07;;;;;;;4.13;2.45;;;20.50;99.90;;;;;;5055621;28;20462;-49
2022/12/11 10:01:50;;;;;;;4.38;2.40;;;20.40;99.90;;;;;;5055315;28;20075;-49
2022/12/11 10:04:50;;;;;;;4.75;2.33;;;20.50;99.90;;;;;;5055344;28;20088;-48
2022/12/11 10:07:44;;;;;;;4.85;2.90;;;20.40;99.90;;;;;;5055257;28;20402;-48
2022/12/11 10:10:38;;;;;;;3.95;2.88;;;20.50;99.90;;;;;;5055322;28;20018;-49
2022/12/11 10:13:33;;;;;;;5.03;2.70;;;20.50;99.90;;;;;;5055262;28;20429;-48
2022/12/11 10:16:09;;;;;;;7.13;3.55;;;20.50;99.90;;;;;;5055379;28;20511;-48
2022/12/11 10:18:35;;;;;;;6.30;3.60;;;20.50;99.90;;;;;;5055299;28;20028;-49
2022/12/11 10:21:02;;;;;;;4.50;2.85;;;20.50;99.90;;;;;;5055216;28;20107;-49
2022/12/11 10:23:49;;;;;;;5.25;3.22;;;20.60;99.90;;;;;;5055232;28;20021;-49
2022/12/11 10:26:18;;;;;;;5.72;3.53;;;20.50;99.90;;;;;;5055038;28;20116;-49
2022/12/11 10:28:44;;;;;;;7.93;3.83;;;20.60;99.90;;;;;;5054906;28;20036;-48
2022/12/11 10:31:09;;;;;;;6.47;3.83;;;20.60;99.90;;;;;;5055211;28;20489;-49
2022/12/11 10:33:50;;;;;;;6.22;3.85;;;20.60;99.90;;;;;;5054914;28;20029;-49
2022/12/11 10:36:24;;;;;;;4.45;3.63;;;20.60;99.90;;;;;;5054953;28;20025;-49
2022/12/11 10:38:50;;;;;;;5.72;3.60;;;20.60;99.90;;;;;;5054872;28;20028;-49
2022/12/11 10:41:23;;;;;;;5.18;3.72;;;20.60;99.90;;;;;;5054765;28;20025;-49
2022/12/11 10:43:52;;;;;;;7.82;4.38;;;20.60;99.90;;;;;;5054713;28;20478;-49
2022/12/11 10:46:23;;;;;;;7.70;4.40;;;20.60;99.90;;;;;;5054131;28;20029;-50
2022/12/11 10:48:57;;;;;;;6.00;4.20;;;20.60;99.90;;;;;;5054470;28;20025;-49
2022/12/11 10:51:36;;;;;;;6.93;4.00;;;20.60;99.90;;;;;;5054581;28;20023;-48
2022/12/11 10:54:26;;;;;;;7.20;4.35;;;20.60;99.90;;;;;;5055132;28;20028;-48
2022/12/11 10:56:52;;;;;;;5.43;3.72;;;20.60;99.90;;;;;;5054347;28;20467;-49
2022/12/11 10:59:48;;;;;;;7.38;4.47;;;20.60;99.90;;;;;;5036467;28;20033;-48
2022/12/11 11:02:39;;;;;;;5.88;4.45;;;20.60;99.90;;;;;;5054292;28;20045;-51
2022/12/11 11:05:38;;;;;;;6.25;4.90;;;20.60;99.90;;;;;;5054191;28;20459;-49
2022/12/11 11:08:18;;;;;;;7.30;4.90;;;20.70;99.90;;;;;;5036204;28;20044;-48
2022/12/11 11:10:56;;;;;;;6.45;4.57;;;20.70;99.90;;;;;;5036416;28;20025;-49
2022/12/11 11:13:24;;;;;;;6.88;4.78;;;20.70;99.90;;;;;;5036057;28;20020;-49
2022/12/11 11:16:03;;;;;;;7.60;5.00;;;20.70;99.90;;;;;;5054044;28;20033;-48
2022/12/11 11:18:30;;;;;;;7.20;4.65;;;20.70;99.90;;;;;;5054272;28;20021;-49
2022/12/11 11:20:57;;;;;;;6.60;4.80;;;20.70;99.90;;;;;;5053858;28;20021;-50
2022/12/11 11:23:24;;;;;;;8.70;4.93;;;20.70;99.90;;;;;;5053844;28;20025;-49
2022/12/11 11:25:52;;;;;;;7.00;5.10;;;20.70;99.90;;;;;;5053767;28;20025;-48
2022/12/11 11:28:24;;;;;;;11.30;5.63;;;20.70;99.90;;;;;;5053699;28;20115;-48
2022/12/11 11:31:25;;;;;;;6.80;4.90;;;20.70;99.90;;;;;;5053722;28;20077;-49
2022/12/11 11:33:54;;;;;;;9.68;4.88;;;20.70;99.90;;;;;;5021824;28;20063;-49
2022/12/11 11:36:26;;;;;;;8.90;5.75;;;20.70;99.90;;;;;;5035881;28;20028;-49
2022/12/11 11:39:10;;;;;;;8.43;5.25;;;20.70;99.90;;;;;;5053693;28;20475;-49
2022/12/11 11:41:59;;;;;;;7.20;5.18;;;20.70;99.90;;;;;;5053511;28;20118;-49
2022/12/11 11:44:41;;;;;;;7.20;5.65;;;20.70;99.90;;;;;;5053276;28;20102;-50
2022/12/11 11:47:18;;;;;;;10.52;5.00;;;20.70;99.90;;;;;;5053151;28;20033;-49
2022/12/11 11:50:01;;;;;;;7.20;4.70;;;20.70;99.90;;;;;;5053523;28;20555;-50
2022/12/11 11:53:06;;;;;;;8.00;5.43;;;20.70;99.90;;;;;;5053282;28;20281;-50
2022/12/11 11:55:45;;;;;;;6.90;4.75;;;20.70;99.90;;;;;;5048172;28;20037;-50
2022/12/11 11:58:44;;;;;;;7.30;5.20;;;20.70;99.90;;;;;;5052060;28;20104;-49
2022/12/11 12:01:18;;;;;;;7.03;5.20;;;20.70;99.90;;;;;;5046331;28;20045;-49
2022/12/11 12:03:47;;;;;;;8.23;5.25;;;20.70;99.90;;;;;;5053256;28;20033;-50
2022/12/11 12:06:32;;;;;;;7.10;4.68;;;20.80;99.90;;;;;;5052918;28;20079;-50
2022/12/11 12:09:16;;;;;;;8.98;5.05;;;20.70;99.90;;;;;;5052898;28;20064;-49
2022/12/11 12:12:14;;;;;;;7.68;5.03;;;20.80;99.90;;;;;;5052911;28;20028;-50
2022/12/11 12:15:09;;;;;;;6.75;4.75;;;20.80;99.90;;;;;;4997909;28;20029;-50
2022/12/11 12:17:47;;;;;;;6.35;4.60;;;20.80;99.90;;;;;;5053051;28;20104;-50
2022/12/11 12:20:18;;;;;;;7.95;4.75;;;20.80;99.90;;;;;;5052696;28;20040;-49
2022/12/11 12:22:50;;;;;;;10.23;5.15;;;20.80;99.90;;;;;;5052677;28;20032;-49
2022/12/11 12:25:27;;;;;;;6.75;5.15;;;20.90;99.90;;;;;;5052654;28;20024;-49
2022/12/11 12:28:12;;;;;;;;;;;20.90;99.90;;;;;;5053028;28;20037;-50
2022/12/11 12:30:50;;;;;;;6.57;5.00;;;20.90;99.90;;;;;;5051276;28;19928;-49
2022/12/11 12:33:44;;;;;;;8.18;5.13;;;20.90;99.90;;;;;;5052621;28;20024;-51
2022/12/11 12:36:20;;;;;;;8.93;5.07;;;20.90;99.90;;;;;;5034586;28;20089;-49
2022/12/11 12:38:45;;;;;;;7.90;5.00;;;20.90;99.90;;;;;;5052396;28;20443;-48
2022/12/11 12:41:48;;;;;;;7.35;4.75;;;21.00;99.90;;;;;;5034528;28;20104;-49
2022/12/11 12:44:17;;;;;;;8.30;4.80;;;21.00;99.90;;;;;;5052281;28;20035;-48
2022/12/11 12:46:56;;;;;;;6.22;4.90;;;21.00;99.90;;;;;;5052369;28;20041;-50
2022/12/11 12:49:37;;;;;;;6.95;5.00;;;21.10;99.90;;;;;;5018008;28;20032;-49
2022/12/11 12:52:05;;;;;;;7.15;4.60;;;21.10;99.90;;;;;;5052206;28;20355;-49
2022/12/11 12:54:34;;;;;;;8.27;5.43;;;21.20;99.90;;;;;;5052149;28;20509;-49
2022/12/11 12:57:02;;;;;;;8.90;5.60;;;21.20;99.90;;;;;;5052050;28;20054;-50
2022/12/11 12:59:28;;;;;;;7.68;5.13;;;21.20;99.90;;;;;;5051985;28;20031;-49
2022/12/11 13:01:57;;;;;;;8.55;5.55;;;21.30;99.90;;;;;;5052292;28;20469;-49
2022/12/11 13:04:44;;;;;;;10.48;5.30;;;21.40;99.90;;;;;;5052119;28;20029;-50
2022/12/11 13:07:26;;;;;;;10.75;5.25;;;21.40;99.90;;;;;;5052277;28;20082;-49
2022/12/11 13:10:31;;;;;;;8.70;5.57;;;21.50;99.90;;;;;;5051685;28;20025;-49
2022/12/11 13:12:58;;;;;;;8.00;5.18;;;21.60;99.90;;;;;;5050593;28;20482;-50